Time;durP1;ratioP1;P1;durP2;ratioP2;P2;SDS_P1;SDS_P2;PMS_P1;PMS_P2;Temp;Humidity;BMP_temperature;BMP_pressure;BME280_temperature;BME280_humidity;BME280_pressure;Samples;Min_cycle;Max_cycle;Signal;HPM_P1;HPM_P2
2022/01/06 00:01:08;;;;;;;;;;;1.60;99.90;;;;;;5076990;28;19957;-87
2022/01/06 00:03:34;;;;;;;;;;;1.60;99.90;;;;;;5075928;28;19904;-85
2022/01/06 00:06:07;;;;;;;;;;;1.60;99.90;;;;;;5093970;28;19915;-77
2022/01/06 00:08:34;;;;;;;;;;;1.60;99.90;;;;;;5092160;28;20011;-85
2022/01/06 00:11:00;;;;;;;;;;;1.60;99.90;;;;;;5092944;28;19926;-79
2022/01/06 00:13:34;;;;;;;;;;;1.60;99.90;;;;;;5092511;28;20368;-77
2022/01/06 00:16:08;;;;;;;;;;;1.60;99.90;;;;;;5091722;28;20010;-79
2022/01/06 00:24:06;;;;;;;;;;;1.50;99.90;;;;;;5110949;28;19918;-83
2022/01/06 00:26:32;;;;;;;;;;;1.50;99.90;;;;;;5092086;28;20283;-79
2022/01/06 00:28:57;;;;;;;;;;;1.50;99.90;;;;;;5091563;28;19907;-85
2022/01/06 00:31:23;;;;;;;;;;;1.50;99.90;;;;;;5092689;28;20360;-81
2022/01/06 00:33:49;;;;;;;;;;;1.50;99.90;;;;;;5094766;28;19904;-78
2022/01/06 00:36:14;;;;;;;;;;;1.50;99.90;;;;;;5097490;28;19998;-84
2022/01/06 00:38:40;;;;;;;;;;;1.60;99.90;;;;;;5091836;28;20452;-79
2022/01/06 00:41:05;;;;;;;;;;;1.50;99.90;;;;;;5092997;28;19952;-80
2022/01/06 00:43:31;;;;;;;;;;;1.60;99.90;;;;;;5113400;28;20112;-79
2022/01/06 00:45:56;;;;;;;;;;;1.50;99.90;;;;;;5110473;28;19957;-77
2022/01/06 00:48:22;;;;;;;;;;;1.50;99.90;;;;;;5093470;28;19915;-79
2022/01/06 00:50:47;;;;;;;;;;;1.50;99.90;;;;;;5110574;28;19923;-77
2022/01/06 00:53:13;;;;;;;;;;;1.50;99.90;;;;;;5092308;28;20268;-76
2022/01/06 00:55:39;;;;;;;;;;;1.50;99.90;;;;;;5093393;28;19914;-77
2022/01/06 00:58:05;;;;;;;;;;;1.50;99.90;;;;;;5095147;28;19946;-77
2022/01/06 01:00:38;;;;;;;;;;;1.50;99.90;;;;;;5108682;28;19911;-77
2022/01/06 01:03:17;;;;;;;;;;;1.50;99.90;;;;;;5118967;28;20469;-86
2022/01/06 01:05:44;;;;;;;;;;;1.50;99.90;;;;;;5099761;28;19918;-86
2022/01/06 01:08:10;;;;;;;;;;;1.50;99.90;;;;;;5112886;28;19916;-83
2022/01/06 01:10:37;;;;;;;;;;;1.50;99.90;;;;;;5091225;28;19916;-78
2022/01/06 01:13:03;;;;;;;;;;;1.50;99.90;;;;;;5091816;28;19908;-84
2022/01/06 01:15:31;;;;;;;;;;;1.60;99.90;;;;;;5092023;28;20002;-87
2022/01/06 01:18:05;;;;;;;;;;;1.50;99.90;;;;;;5091642;28;20314;-83
2022/01/06 01:20:31;;;;;;;;;;;1.50;99.90;;;;;;5092709;28;19907;-79
2022/01/06 01:22:57;;;;;;;;;;;1.60;99.90;;;;;;5090071;28;19908;-80
2022/01/06 01:25:22;;;;;;;;;;;1.60;99.90;;;;;;5109868;28;20436;-81
2022/01/06 01:27:48;;;;;;;;;;;1.60;99.90;;;;;;5092165;28;19954;-87
2022/01/06 01:30:14;;;;;;;;;;;1.60;99.90;;;;;;5091870;28;19908;-82
2022/01/06 01:32:45;;;;;;;;;;;1.50;99.90;;;;;;5117541;28;19995;-86
2022/01/06 01:35:11;;;;;;;;;;;1.50;99.90;;;;;;5112146;28;19900;-87
2022/01/06 01:37:37;;;;;;;;;;;1.60;99.90;;;;;;5092751;28;19926;-83
2022/01/06 01:40:04;;;;;;;;;;;1.60;99.90;;;;;;5093301;28;19916;-81
2022/01/06 01:42:30;;;;;;;;;;;1.60;99.90;;;;;;5093354;28;19903;-86
2022/01/06 01:44:56;;;;;;;;;;;1.50;99.90;;;;;;5112933;28;19952;-85
2022/01/06 01:47:57;;;;;;;;;;;1.50;99.90;;;;;;5116225;28;19907;-87
2022/01/06 01:50:16;;;;;;;;;;;1.60;99.90;;;;;;5109986;28;19904;-86
2022/01/06 01:52:43;;;;;;;;;;;1.60;99.90;;;;;;5098041;28;20373;-81
2022/01/06 01:55:10;;;;;;;;;;;1.60;99.90;;;;;;5098102;28;19904;-84
2022/01/06 01:57:35;;;;;;;;;;;1.60;99.90;;;;;;5116324;28;19994;-87
2022/01/06 02:00:03;;;;;;;;;;;1.60;99.90;;;;;;5097611;28;20030;-85
2022/01/06 02:02:29;;;;;;;;;;;1.50;99.90;;;;;;5097575;28;19960;-84
2022/01/06 02:04:54;;;;;;;;;;;1.60;99.90;;;;;;5101106;28;19951;-85
2022/01/06 02:07:20;;;;;;;;;;;1.50;99.90;;;;;;5098691;28;19912;-87
2022/01/06 02:09:45;;;;;;;;;;;1.50;99.90;;;;;;5115574;28;19912;-87
2022/01/06 02:12:21;;;;;;;;;;;1.50;99.90;;;;;;5098015;28;19946;-87
2022/01/06 02:14:46;;;;;;;;;;;1.50;99.90;;;;;;5131126;28;20432;-83
2022/01/06 02:17:12;;;;;;;;;;;1.50;99.90;;;;;;5098682;28;19904;-86
2022/01/06 02:19:37;;;;;;;;;;;1.50;99.90;;;;;;5097484;28;19908;-87
2022/01/06 02:22:03;;;;;;;;;;;1.50;99.90;;;;;;5115290;28;19907;-87
2022/01/06 02:24:28;;;;;;;;;;;1.50;99.90;;;;;;5097492;28;19918;-86
2022/01/06 02:26:54;;;;;;;;;;;1.50;99.90;;;;;;5116767;28;19973;-85
2022/01/06 02:29:19;;;;;;;;;;;1.50;99.90;;;;;;5098262;28;19908;-84
2022/01/06 02:31:46;;;;;;;;;;;1.50;99.90;;;;;;5097607;28;19908;-83
2022/01/06 02:34:12;;;;;;;;;;;1.40;99.90;;;;;;5115713;28;19938;-87
2022/01/06 02:36:38;;;;;;;;;;;1.40;99.90;;;;;;5097105;28;19915;-86
2022/01/06 02:39:03;;;;;;;;;;;1.40;99.90;;;;;;5096672;28;20045;-84
2022/01/06 02:41:29;;;;;;;;;;;1.30;99.90;;;;;;5095734;28;19903;-87
2022/01/06 02:43:56;;;;;;;;;;;1.20;99.90;;;;;;5095971;28;19903;-84
2022/01/06 02:46:21;;;;;;;;;;;1.20;99.90;;;;;;5095744;28;20201;-86
2022/01/06 02:48:47;;;;;;;;;;;1.20;99.90;;;;;;5095097;28;20246;-85
2022/01/06 02:51:12;;;;;;;;;;;1.20;99.90;;;;;;5095445;28;19910;-86
2022/01/06 02:53:38;;;;;;;;;;;1.10;99.90;;;;;;5094525;28;19995;-86
2022/01/06 02:56:04;;;;;;;;;;;2.00;99.90;;;;;;5111403;28;19957;-81
2022/01/06 02:58:29;;;;;;;;;;;1.10;99.90;;;;;;5112177;28;19903;-85
2022/01/06 03:00:56;;;;;;;;;;;1.10;99.90;;;;;;5093635;28;19904;-84
2022/01/06 03:03:22;;;;;;;;;;;1.10;99.90;;;;;;5112332;28;19907;-86
2022/01/06 03:05:47;;;;;;;;;;;1.00;99.90;;;;;;5111405;28;19904;-86
2022/01/06 03:08:13;;;;;;;;;;;1.00;99.90;;;;;;5092860;28;20013;-85
2022/01/06 03:10:43;;;;;;;;;;;0.90;99.90;;;;;;5093416;28;19903;-81
2022/01/06 03:13:08;;;;;;;;;;;1.00;99.90;;;;;;5111720;28;20131;-83
2022/01/06 03:15:34;;;;;;;;;;;0.90;99.90;;;;;;5111766;28;20199;-86
2022/01/06 03:17:59;;;;;;;;;;;0.90;99.90;;;;;;5093251;28;19903;-88
2022/01/06 03:20:26;;;;;;;;;;;0.80;99.90;;;;;;5093188;28;19910;-85
2022/01/06 03:22:53;;;;;;;;;;;0.70;99.90;;;;;;5112249;28;19994;-84
2022/01/06 03:25:19;;;;;;;;;;;0.70;99.90;;;;;;5112916;28;19904;-81
2022/01/06 03:27:45;;;;;;;;;;;0.70;99.90;;;;;;5095018;28;19927;-87
2022/01/06 03:30:12;;;;;;;;;;;0.70;99.90;;;;;;5094952;28;19907;-85
2022/01/06 03:32:38;;;;;;;;;;;0.80;99.90;;;;;;5112668;28;19908;-81
2022/01/06 03:35:05;;;;;;;;;;;1.20;99.90;;;;;;5112789;28;19914;-84
2022/01/06 03:37:30;;;;;;;;;;;0.70;99.90;;;;;;5095203;28;19911;-88
2022/01/06 03:39:56;;;;;;;;;;;0.70;99.90;;;;;;5039001;28;1604140;-84
2022/01/06 03:42:21;;;;;;;;;;;0.60;99.90;;;;;;5095761;28;19908;-82
2022/01/06 03:44:49;;;;;;;;;;;0.70;99.90;;;;;;5095979;28;20010;-86
2022/01/06 03:47:14;;;;;;;;;;;0.60;99.90;;;;;;5114084;28;20283;-86
2022/01/06 03:49:40;;;;;;;;;;;0.60;99.90;;;;;;5096015;28;19930;-87
2022/01/06 03:52:05;;;;;;;;;;;0.60;99.90;;;;;;5095905;28;19904;-87
2022/01/06 03:54:31;;;;;;;;;;;0.70;99.90;;;;;;5113824;28;20141;-82
2022/01/06 03:56:58;;;;;;;;;;;0.70;99.90;;;;;;5114504;28;19911;-87
2022/01/06 03:59:24;;;;;;;;;;;0.70;99.90;;;;;;5095760;28;19905;-86
2022/01/06 04:01:49;;;;;;;;;;;0.70;99.90;;;;;;5095876;28;19915;-87
2022/01/06 04:04:15;;;;;;;;;;;0.70;99.90;;;;;;5096513;28;19914;-86
2022/01/06 04:06:41;;;;;;;;;;;0.60;99.90;;;;;;5113450;28;19904;-82
2022/01/06 04:09:06;;;;;;;;;;;0.60;99.90;;;;;;5112533;28;19965;-86
2022/01/06 04:11:32;;;;;;;;;;;0.60;99.90;;;;;;5113390;28;19910;-89
2022/01/06 04:13:58;;;;;;;;;;;0.60;99.90;;;;;;5095735;28;19903;-86
2022/01/06 04:16:25;;;;;;;;;;;0.60;99.90;;;;;;5095664;28;19910;-87
2022/01/06 04:18:51;;;;;;;;;;;0.60;99.90;;;;;;5096109;28;19907;-84
2022/01/06 04:21:16;;;;;;;;;;;-0.10;99.90;;;;;;5095371;28;19937;-86
2022/01/06 04:23:42;;;;;;;;;;;0.50;99.90;;;;;;5113127;28;20245;-86
2022/01/06 04:26:08;;;;;;;;;;;0.40;99.90;;;;;;5095546;28;19927;-87
2022/01/06 04:28:33;;;;;;;;;;;0.40;99.90;;;;;;5095511;28;19911;-87
2022/01/06 04:30:59;;;;;;;;;;;0.40;99.90;;;;;;5095301;28;20583;-85
2022/01/06 04:33:24;;;;;;;;;;;0.40;99.90;;;;;;5094870;28;19910;-81
2022/01/06 04:35:50;;;;;;;;;;;0.60;99.90;;;;;;5113434;28;19939;-82
2022/01/06 04:38:15;;;;;;;;;;;0.40;99.90;;;;;;5094399;28;20363;-87
2022/01/06 04:40:41;;;;;;;;;;;0.50;99.90;;;;;;5094290;28;20240;-85
2022/01/06 04:43:07;;;;;;;;;;;0.50;99.90;;;;;;5094947;28;19915;-85
2022/01/06 04:45:33;;;;;;;;;;;0.60;99.90;;;;;;5095257;28;19914;-78
2022/01/06 04:47:59;;;;;;;;;;;0.60;99.90;;;;;;5114939;28;20348;-85
2022/01/06 04:50:25;;;;;;;;;;;0.70;99.90;;;;;;5094896;28;19904;-85
2022/01/06 04:52:50;;;;;;;;;;;0.60;99.90;;;;;;5094392;28;19929;-88
2022/01/06 04:55:16;;;;;;;;;;;0.50;99.90;;;;;;5112861;28;20118;-88
2022/01/06 04:57:41;;;;;;;;;;;0.50;99.90;;;;;;5095434;28;19994;-83
2022/01/06 05:00:07;;;;;;;;;;;0.60;99.90;;;;;;5114019;28;20327;-81
2022/01/06 05:02:33;;;;;;;;;;;0.70;99.90;;;;;;5110717;28;20352;-83
2022/01/06 05:04:59;;;;;;;;;;;0.70;99.90;;;;;;5094761;28;19907;-82
2022/01/06 05:07:24;;;;;;;;;;;0.70;99.90;;;;;;5112199;28;20380;-85
2022/01/06 05:09:50;;;;;;;;;;;0.70;99.90;;;;;;5093997;28;19908;-85
2022/01/06 05:12:15;;;;;;;;;;;0.70;99.90;;;;;;5112179;28;19904;-88
2022/01/06 05:14:42;;;;;;;;;;;0.60;99.90;;;;;;5094526;28;19912;-86
2022/01/06 05:17:08;;;;;;;;;;;0.60;99.90;;;;;;5094177;28;19903;-87
2022/01/06 05:19:33;;;;;;;;;;;0.60;99.90;;;;;;5094341;28;19950;-86
2022/01/06 05:21:59;;;;;;;;;;;0.50;99.90;;;;;;5094326;28;19947;-85
2022/01/06 05:24:25;;;;;;;;;;;0.60;99.90;;;;;;5093988;28;19962;-87
2022/01/06 05:26:53;;;;;;;;;;;0.60;99.90;;;;;;5094642;28;20351;-88
2022/01/06 05:29:19;;;;;;;;;;;0.70;99.90;;;;;;5094370;28;19916;-87
2022/01/06 05:31:45;;;;;;;;;;;0.80;99.90;;;;;;5093999;28;19917;-82
2022/01/06 05:34:10;;;;;;;;;;;0.80;99.90;;;;;;5112184;28;20127;-88
2022/01/06 05:36:36;;;;;;;;;;;0.90;99.90;;;;;;5112376;28;19908;-86
2022/01/06 05:39:02;;;;;;;;;;;0.90;99.90;;;;;;5112282;28;19922;-87
2022/01/06 05:41:27;;;;;;;;;;;1.00;99.90;;;;;;5094226;28;19930;-88
2022/01/06 05:43:53;;;;;;;;;;;1.00;99.90;;;;;;5094028;28;20051;-87
2022/01/06 05:46:19;;;;;;;;;;;0.90;99.90;;;;;;5112037;28;19972;-79
2022/01/06 05:48:45;;;;;;;;;;;0.90;99.90;;;;;;5094439;28;19919;-81
2022/01/06 05:51:11;;;;;;;;;;;0.90;99.90;;;;;;5093956;28;19972;-84
2022/01/06 05:53:36;;;;;;;;;;;0.80;99.90;;;;;;5112139;28;19911;-85
2022/01/06 05:56:02;;;;;;;;;;;0.90;99.90;;;;;;5093950;28;20522;-85
2022/01/06 05:58:27;;;;;;;;;;;0.80;99.90;;;;;;5094308;28;19910;-88
2022/01/06 06:00:53;;;;;;;;;;;0.80;99.90;;;;;;5112000;28;19952;-84
2022/01/06 06:03:18;;;;;;;;;;;0.80;99.90;;;;;;5094129;28;19904;-86
2022/01/06 06:05:44;;;;;;;;;;;0.80;99.90;;;;;;5093612;28;20002;-86
2022/01/06 06:08:09;;;;;;;;;;;0.70;99.90;;;;;;5093874;28;19977;-85
2022/01/06 06:10:35;;;;;;;;;;;0.70;99.90;;;;;;5093599;28;19954;-86
2022/01/06 06:13:01;;;;;;;;;;;0.80;99.90;;;;;;5093671;28;19904;-83
2022/01/06 06:15:27;;;;;;;;;;;0.70;99.90;;;;;;5112147;28;19904;-82
2022/01/06 06:17:52;;;;;;;;;;;0.80;99.90;;;;;;5112069;28;19904;-84
2022/01/06 06:20:18;;;;;;;;;;;0.80;99.90;;;;;;5094093;28;20077;-81
2022/01/06 06:22:44;;;;;;;;;;;0.70;99.90;;;;;;5093442;28;19957;-83
2022/01/06 06:25:09;;;;;;;;;;;0.80;99.90;;;;;;5093360;28;19942;-79
2022/01/06 06:27:35;;;;;;;;;;;0.70;99.90;;;;;;5093090;28;20479;-78
2022/01/06 06:30:01;;;;;;;;;;;0.80;99.90;;;;;;5111189;28;19949;-77
2022/01/06 06:32:28;;;;;;;;;;;0.80;99.90;;;;;;5096044;28;19908;-78
2022/01/06 06:34:53;;;;;;;;;;;0.80;99.90;;;;;;5096430;28;20268;-77
2022/01/06 06:37:19;;;;;;;;;;;0.80;99.90;;;;;;5093508;28;19923;-77
2022/01/06 06:39:45;;;;;;;;;;;0.80;99.90;;;;;;5113965;28;19919;-77
2022/01/06 06:42:11;;;;;;;;;;;0.80;99.90;;;;;;5093520;28;19915;-78
2022/01/06 06:44:36;;;;;;;;;;;0.80;99.90;;;;;;5088565;28;19903;-77
2022/01/06 06:47:02;;;;;;;;;;;0.80;99.90;;;;;;5104478;28;20363;-76
2022/01/06 06:49:29;;;;;;;;;;;0.80;99.90;;;;;;5074520;28;19911;-77
2022/01/06 06:51:55;;;;;;;;;;;0.90;99.90;;;;;;5074044;28;19958;-76
2022/01/06 06:54:20;;;;;;;;;;;1.00;99.90;;;;;;5074242;28;19917;-77
2022/01/06 06:56:46;;;;;;;;;;;1.10;99.90;;;;;;5092833;28;19904;-76
2022/01/06 06:59:11;;;;;;;;;;;1.20;99.90;;;;;;5092301;28;19908;-77
2022/01/06 07:01:37;;;;;;;;;;;1.10;99.90;;;;;;5073864;28;19926;-76
2022/01/06 07:04:02;;;;;;;;;;;1.10;99.90;;;;;;5073921;28;19904;-77
2022/01/06 07:06:28;;;;;;;;;;;1.00;99.90;;;;;;5073973;28;19929;-76
2022/01/06 07:08:53;;;;;;;;;;;1.00;99.90;;;;;;5073010;28;20343;-76
2022/01/06 07:11:21;;;;;;;;;;;0.90;99.90;;;;;;5091817;28;19912;-78
2022/01/06 07:13:46;;;;;;;;;;;0.90;99.90;;;;;;5073205;28;20177;-77
2022/01/06 07:16:12;;;;;;;;;;;1.00;99.90;;;;;;5073924;28;20139;-77
2022/01/06 07:18:37;;;;;;;;;;;1.00;99.90;;;;;;5073295;28;19973;-76
2022/01/06 07:21:03;;;;;;;;;;;0.90;99.90;;;;;;5096083;28;19954;-77
2022/01/06 07:23:28;;;;;;;;;;;0.90;99.90;;;;;;5097438;28;19903;-77
2022/01/06 07:25:54;;;;;;;;;;;0.80;99.90;;;;;;5074156;28;19912;-75
2022/01/06 07:28:20;;;;;;;;;;;0.90;99.90;;;;;;5079382;28;19918;-75
2022/01/06 07:30:45;;;;;;;;;;;0.80;99.90;;;;;;5072997;28;19908;-76
2022/01/06 07:33:11;;;;;;;;;;;0.80;99.90;;;;;;5072345;28;20387;-77
2022/01/06 07:35:37;;;;;;;;;;;0.80;99.90;;;;;;5071799;28;19908;-76
2022/01/06 07:38:02;;;;;;;;;;;0.80;99.90;;;;;;5071132;28;20283;-76
2022/01/06 07:40:28;;;;;;;;;;;0.70;99.90;;;;;;5071768;28;20002;-77
2022/01/06 07:42:53;;;;;;;;;;;0.70;99.90;;;;;;5070834;28;19915;-77
2022/01/06 07:45:19;;;;;;;;;;;0.80;99.90;;;;;;5072057;28;20295;-76
2022/01/06 07:48:00;;;;;;;;;;;0.70;99.90;;;;;;5072005;28;19980;-76
2022/01/06 07:50:31;;;;;;;;;;;0.80;99.90;;;;;;5071737;28;20070;-76
2022/01/06 07:52:57;;;;;;;;;;;1.10;99.90;;;;;;5090815;28;19927;-76
2022/01/06 07:55:23;;;;;;;;;;;0.80;99.90;;;;;;5089575;28;19907;-77
2022/01/06 07:57:49;;;;;;;;;;;0.80;99.90;;;;;;5089422;28;19904;-76
2022/01/06 08:00:15;;;;;;;;;;;0.90;99.90;;;;;;5089139;28;19904;-75
2022/01/06 08:02:41;;;;;;;;;;;0.90;99.90;;;;;;5089514;28;19904;-76
2022/01/06 08:05:10;;;;;;;;;;;0.90;99.90;;;;;;5070857;28;20435;-76
2022/01/06 08:07:36;;;;;;;;;;;0.90;99.90;;;;;;5070013;28;20371;-75
2022/01/06 08:10:02;;;;;;;;;;;1.00;99.90;;;;;;5089351;28;19908;-76
2022/01/06 08:12:29;;;;;;;;;;;1.00;99.90;;;;;;5092481;28;19904;-75
2022/01/06 08:14:55;;;;;;;;;;;1.50;99.90;;;;;;5096111;28;20010;-75
2022/01/06 08:17:20;;;;;;;;;;;1.10;99.90;;;;;;5098269;28;20381;-75
2022/01/06 08:19:47;;;;;;;;;;;1.10;99.90;;;;;;5097632;28;19982;-76
2022/01/06 08:22:13;;;;;;;;;;;1.20;99.90;;;;;;5110242;28;19951;-76
2022/01/06 08:24:38;;;;;;;;;;;1.30;99.90;;;;;;5109167;28;19947;-76
2022/01/06 08:27:08;;;;;;;;;;;1.30;99.90;;;;;;5092421;28;19945;-76
2022/01/06 08:29:40;;;;;;;;;;;1.30;99.90;;;;;;5092351;28;20207;-75
2022/01/06 08:32:06;;;;;;;;;;;1.20;99.90;;;;;;5110397;28;19908;-76
2022/01/06 08:34:31;;;;;;;;;;;1.10;99.90;;;;;;5108149;28;19911;-77
2022/01/06 08:36:58;;;;;;;;;;;1.10;99.90;;;;;;5108675;28;19907;-76
2022/01/06 08:39:23;;;;;;;;;;;1.00;99.90;;;;;;5090626;28;19969;-77
2022/01/06 08:41:50;;;;;;;;;;;1.00;99.90;;;;;;5091267;28;19943;-76
2022/01/06 08:44:15;;;;;;;;;;;1.00;99.90;;;;;;5109483;28;19911;-74
2022/01/06 08:46:41;;;;;;;;;;;1.00;99.90;;;;;;5108482;28;19908;-76
2022/01/06 08:49:11;;;;;;;;;;;1.20;99.90;;;;;;5090825;28;19916;-76
2022/01/06 08:51:37;;;;;;;;;;;1.40;99.90;;;;;;5108954;28;19911;-75
2022/01/06 08:54:03;;;;;;;;;;;1.60;99.90;;;;;;5090898;28;19903;-75
2022/01/06 08:56:28;;;;;;;;;;;1.70;99.90;;;;;;5091006;28;19975;-75
2022/01/06 08:58:55;;;;;;;;;;;1.80;99.90;;;;;;5090695;28;20409;-75
2022/01/06 09:01:20;;;;;;;;;;;1.80;99.90;;;;;;5091037;28;19907;-75
2022/01/06 09:03:46;;;;;;;;;;;1.90;99.90;;;;;;5091202;28;19923;-76
2022/01/06 09:06:12;;;;;;;;;;;2.00;99.90;;;;;;5090563;28;19998;-76
2022/01/06 09:08:37;;;;;;;;;;;1.90;99.90;;;;;;5089230;28;19919;-75
2022/01/06 09:11:03;;;;;;;;;;;2.10;99.90;;;;;;5090032;28;19908;-76
2022/01/06 09:13:29;;;;;;;;;;;2.20;99.90;;;;;;5089506;28;19904;-75
2022/01/06 09:15:54;;;;;;;;;;;2.20;99.90;;;;;;5089689;28;19908;-75
2022/01/06 09:20:32;;;;;;;6.70;2.13;;;;;;;;;;5043124;27;1735107;-76
2022/01/06 09:22:57;;;;;;;7.05;2.22;;;2.30;99.90;;;;;;5084079;28;20093;-75
2022/01/06 09:25:23;;;;;;;6.07;2.20;;;;;;;;;;5082983;28;20033;-75
2022/01/06 09:27:49;;;;;;;6.35;3.22;;;2.50;99.90;;;;;;5083573;28;20458;-74
2022/01/06 09:30:15;;;;;;;1.70;1.60;;;2.60;99.90;;;;;;5083261;28;20024;-76
2022/01/06 09:32:41;;;;;;;3.92;1.90;;;2.70;99.90;;;;;;5083194;28;20089;-76
2022/01/06 09:35:08;;;;;;;6.10;2.40;;;2.80;99.90;;;;;;5087154;28;20394;-75
2022/01/06 09:37:33;;;;;;;8.88;3.05;;;2.80;99.90;;;;;;5088777;28;20557;-76
2022/01/06 09:39:59;;;;;;;3.05;2.10;;;2.80;99.90;;;;;;5090461;28;20055;-76
2022/01/06 09:42:24;;;;;;;5.22;2.13;;;2.70;99.90;;;;;;5090743;28;20036;-76
2022/01/06 09:44:51;;;;;;;3.47;1.77;;;2.60;99.90;;;;;;5091137;28;20067;-75
2022/01/06 09:47:18;;;;;;;3.50;1.90;;;2.50;99.90;;;;;;5088355;28;20020;-74
2022/01/06 09:49:45;;;;;;;6.63;1.85;;;2.60;99.90;;;;;;5093248;28;20516;-75
2022/01/06 09:52:12;;;;;;;4.97;1.85;;;2.70;99.90;;;;;;5092343;28;20066;-75
2022/01/06 09:54:39;;;;;;;3.85;2.28;;;2.80;99.90;;;;;;5091862;28;20123;-77
2022/01/06 09:57:06;;;;;;;6.80;1.98;;;2.80;99.90;;;;;;5094970;28;20035;-77
2022/01/06 09:59:32;;;;;;;2.30;2.10;;;3.00;99.90;;;;;;5088442;28;20097;-75
2022/01/06 10:02:00;;;;;;;5.00;1.75;;;3.30;99.90;;;;;;5089507;28;20098;-75
2022/01/06 10:04:28;;;;;;;5.10;2.28;;;3.30;99.90;;;;;;5090907;28;20033;-76
2022/01/06 10:07:08;;;;;;;2.53;1.92;;;3.10;99.90;;;;;;5092478;28;20020;-75
2022/01/06 10:09:36;;;;;;;3.05;2.65;;;3.10;99.90;;;;;;5091153;28;20054;-75
2022/01/06 10:12:10;;;;;;;2.10;1.55;;;3.20;99.90;;;;;;5092680;28;20103;-77
2022/01/06 10:14:43;;;;;;;3.58;1.48;;;3.40;99.90;;;;;;5089810;28;20036;-76
2022/01/06 10:17:11;;;;;;;2.85;2.10;;;3.50;99.90;;;;;;5092876;28;20088;-76
2022/01/06 10:19:41;;;;;;;7.30;2.08;;;3.60;99.90;;;;;;5091867;28;20044;-75
2022/01/06 10:22:15;;;;;;;5.72;2.15;;;3.60;99.90;;;;;;5090201;28;20388;-76
2022/01/06 10:24:44;;;;;;;9.05;2.38;;;3.70;99.90;;;;;;5091201;28;20086;-76
2022/01/06 10:27:10;;;;;;;5.47;1.90;;;3.60;99.90;;;;;;5088877;28;20181;-76
2022/01/06 10:29:45;;;;;;;3.30;1.85;;;3.60;99.90;;;;;;5090390;28;20036;-76
2022/01/06 10:32:16;;;;;;;6.93;2.25;;;3.60;99.90;;;;;;5077530;28;20204;-76
2022/01/06 10:34:53;;;;;;;9.68;2.97;;;3.60;99.90;;;;;;5077831;28;20055;-74
2022/01/06 10:37:41;;;;;;;3.03;1.83;;;3.60;99.90;;;;;;5071709;28;20050;-76
2022/01/06 10:40:10;;;;;;;3.80;1.70;;;4.00;99.90;;;;;;5067291;28;20385;-75
2022/01/06 10:42:39;;;;;;;7.32;2.95;;;3.90;99.90;;;;;;5065110;28;20021;-76
2022/01/06 10:45:10;;;;;;;6.65;2.55;;;4.00;99.90;;;;;;5065708;28;20040;-75
2022/01/06 10:47:45;;;;;;;2.83;2.63;;;3.90;99.90;;;;;;4957200;28;20110;-75
2022/01/06 10:50:21;;;;;;;6.75;2.13;;;4.00;99.90;;;;;;4966728;28;20023;-76
2022/01/06 10:52:48;;;;;;;6.35;1.92;;;2.20;99.90;;;;;;4967820;28;20074;-76
2022/01/06 10:55:27;;;;;;;4.25;2.08;;;3.80;99.90;;;;;;4969297;28;20037;-76
2022/01/06 10:57:59;;;;;;;3.13;1.27;;;3.80;99.90;;;;;;4969649;28;20027;-76
2022/01/06 11:00:41;;;;;;;3.83;2.00;;;4.00;99.90;;;;;;4969811;28;20038;-76
2022/01/06 11:03:10;;;;;;;10.48;2.55;;;4.00;99.90;;;;;;4969629;28;20097;-76
2022/01/06 11:05:37;;;;;;;2.83;1.92;;;3.90;99.90;;;;;;4970904;28;20031;-76
2022/01/06 11:08:04;;;;;;;2.88;1.60;;;3.90;99.90;;;;;;4971260;28;20499;-76
2022/01/06 11:10:31;;;;;;;9.75;1.98;;;3.90;99.90;;;;;;4988700;28;20080;-75
2022/01/06 11:12:58;;;;;;;3.20;2.17;;;4.00;99.90;;;;;;5007064;28;20270;-76
2022/01/06 11:15:23;;;;;;;4.57;2.70;;;4.00;99.90;;;;;;5005049;28;20075;-76
2022/01/06 11:17:50;;;;;;;5.18;2.45;;;4.10;99.90;;;;;;4991368;28;20101;-75
2022/01/06 11:20:26;;;;;;;4.20;2.28;;;4.20;99.90;;;;;;5008821;28;20498;-76
2022/01/06 11:22:54;;;;;;;5.40;1.95;;;4.20;99.90;;;;;;5008505;28;20030;-75
2022/01/06 11:25:34;;;;;;;2.83;1.83;;;4.10;99.90;;;;;;5008155;28;20030;-75
2022/01/06 11:28:11;;;;;;;3.13;2.25;;;4.10;99.90;;;;;;5009295;28;20521;-75
2022/01/06 11:30:47;;;;;;;6.13;2.75;;;4.00;99.90;;;;;;5006857;28;20638;-75
2022/01/06 11:33:14;;;;;;;6.93;2.58;;;4.10;99.90;;;;;;5009711;28;20021;-75
2022/01/06 11:35:47;;;;;;;4.45;2.10;;;4.30;99.90;;;;;;5012025;28;20033;-75
2022/01/06 11:38:15;;;;;;;5.22;3.15;;;4.50;99.90;;;;;;5010243;28;20061;-75
2022/01/06 11:40:42;;;;;;;2.72;1.70;;;4.50;99.90;;;;;;5009340;28;20057;-75
2022/01/06 11:43:08;;;;;;;7.10;2.40;;;4.50;99.90;;;;;;5008816;28;20030;-74
2022/01/06 11:45:34;;;;;;;6.65;2.45;;;4.40;99.90;;;;;;5007833;28;20509;-75
2022/01/06 11:48:05;;;;;;;3.05;1.80;;;4.30;99.90;;;;;;5012381;28;20026;-75
2022/01/06 11:50:48;;;;;;;4.30;2.03;;;4.40;99.90;;;;;;5011387;28;20057;-75
2022/01/06 11:53:15;;;;;;;2.92;1.77;;;4.40;99.90;;;;;;5007421;28;20022;-74
2022/01/06 11:55:44;;;;;;;3.65;2.47;;;4.60;99.90;;;;;;5010474;28;20096;-74
2022/01/06 11:58:19;;;;;;;5.20;2.13;;;4.70;99.90;;;;;;5011419;28;20596;-74
2022/01/06 12:01:07;;;;;;;2.88;1.55;;;4.90;99.90;;;;;;5010054;28;20037;-74
2022/01/06 12:03:44;;;;;;;5.85;1.98;;;4.90;99.90;;;;;;5009605;28;20552;-74
2022/01/06 12:06:29;;;;;;;4.72;2.75;;;4.80;99.90;;;;;;5012160;28;20482;-74
2022/01/06 12:08:56;;;;;;;4.95;2.50;;;4.80;99.90;;;;;;5012192;28;20022;-74
2022/01/06 12:11:27;;;;;;;5.40;2.28;;;4.80;99.90;;;;;;5012919;28;20026;-74
2022/01/06 12:13:54;;;;;;;4.60;2.58;;;4.90;99.90;;;;;;5008070;28;20018;-74
2022/01/06 12:16:27;;;;;;;6.95;2.53;;;4.50;99.90;;;;;;5009043;28;20394;-75
2022/01/06 12:18:53;;;;;;;3.13;2.28;;;4.20;99.90;;;;;;5005947;28;20526;-74
2022/01/06 12:21:19;;;;;;;5.35;2.15;;;4.10;99.90;;;;;;5024382;28;20029;-74
2022/01/06 12:23:46;;;;;;;4.50;2.42;;;4.10;99.90;;;;;;5026467;28;20028;-74
2022/01/06 12:26:13;;;;;;;4.72;2.33;;;;;;;;;;5028910;28;20022;-74
2022/01/06 12:28:48;;;;;;;1.85;1.70;;;4.50;99.90;;;;;;5028677;28;20060;-74
2022/01/06 12:31:22;;;;;;;2.70;1.35;;;4.60;99.90;;;;;;5025566;28;20163;-74
2022/01/06 12:33:49;;;;;;;8.13;3.45;;;4.60;99.90;;;;;;5031053;28;20061;-75
2022/01/06 12:36:18;;;;;;;3.40;2.00;;;4.80;99.90;;;;;;5028245;28;20474;-75
2022/01/06 12:38:44;;;;;;;2.90;1.48;;;5.00;99.90;;;;;;5026440;28;20026;-74
2022/01/06 12:41:11;;;;;;;2.17;2.00;;;5.10;99.90;;;;;;5027242;28;20040;-74
2022/01/06 12:43:39;;;;;;;2.28;1.55;;;5.00;99.90;;;;;;5028998;28;20033;-75
2022/01/06 12:46:11;;;;;;;2.90;1.88;;;5.00;99.90;;;;;;5032339;28;20036;-74
2022/01/06 12:48:40;;;;;;;3.15;2.15;;;4.80;99.90;;;;;;5026892;28;20028;-75
2022/01/06 12:51:09;;;;;;;2.67;2.40;;;4.80;99.90;;;;;;5029269;28;20021;-74
2022/01/06 12:53:43;;;;;;;1.97;1.83;;;4.60;99.90;;;;;;5030008;28;20086;-76
2022/01/06 12:56:29;;;;;;;1.40;1.30;;;4.30;99.90;;;;;;5030569;28;20112;-74
2022/01/06 12:58:56;;;;;;;2.95;1.80;;;4.00;99.90;;;;;;5030889;28;20037;-74
2022/01/06 13:01:23;;;;;;;2.83;1.65;;;3.90;99.90;;;;;;5029807;28;20053;-74
2022/01/06 13:04:00;;;;;;;6.15;1.55;;;3.90;99.90;;;;;;5030132;28;20044;-75
2022/01/06 13:06:30;;;;;;;2.03;1.80;;;2.00;99.90;;;;;;5030359;28;20037;-74
2022/01/06 13:08:58;;;;;;;3.20;2.10;;;3.80;99.90;;;;;;5032203;28;20032;-74
2022/01/06 13:11:28;;;;;;;6.00;1.50;;;3.70;99.90;;;;;;5028162;28;20033;-73
2022/01/06 13:13:58;;;;;;;3.55;1.33;;;3.60;99.90;;;;;;5026382;28;20029;-74
2022/01/06 13:16:30;;;;;;;5.38;2.08;;;3.70;99.90;;;;;;5026185;28;20062;-73
2022/01/06 13:18:57;;;;;;;9.65;1.40;;;6.10;99.90;;;;;;5027646;28;20498;-74
2022/01/06 13:21:35;;;;;;;2.00;1.80;;;4.00;99.90;;;;;;5008499;28;20410;-74
2022/01/06 13:24:16;;;;;;;3.35;2.03;;;4.20;99.90;;;;;;5007938;28;20605;-76
2022/01/06 13:26:55;;;;;;;4.70;2.35;;;4.40;99.90;;;;;;5007709;28;20401;-74
2022/01/06 13:29:38;;;;;;;3.78;2.72;;;4.70;99.90;;;;;;5009128;28;20033;-74
2022/01/06 13:32:08;;;;;;;5.13;1.98;;;4.70;99.90;;;;;;5011898;28;20037;-74
2022/01/06 13:34:41;;;;;;;;;;;4.70;99.90;;;;;;5009600;28;20026;-74
2022/01/06 13:37:09;;;;;;;7.18;2.53;;;4.90;99.90;;;;;;5004500;28;19910;-74
2022/01/06 13:39:38;;;;;;;6.82;2.60;;;5.20;99.90;;;;;;5005717;28;20445;-75
2022/01/06 13:42:05;;;;;;;6.05;3.28;;;5.50;99.90;;;;;;4991071;28;20041;-75
2022/01/06 13:44:31;;;;;;;6.32;2.00;;;5.70;99.90;;;;;;4987711;28;20097;-75
2022/01/06 13:47:18;;;;;;;3.67;1.45;;;6.00;99.90;;;;;;5002667;28;20027;-75
2022/01/06 13:52:28;;;;;;;3.25;1.60;;;6.50;99.90;;;;;;4987485;28;20561;-75
2022/01/06 13:54:56;;;;;;;1.60;1.50;;;6.40;99.90;;;;;;5002753;28;20062;-74
2022/01/06 13:57:22;;;;;;;3.20;1.70;;;6.30;99.90;;;;;;5003431;28;20122;-75
2022/01/06 13:59:48;;;;;;;3.00;2.08;;;6.40;99.90;;;;;;4996907;28;20498;-76
2022/01/06 14:02:17;;;;;;;7.13;2.47;;;6.10;99.90;;;;;;5007344;28;20033;-76
2022/01/06 14:04:44;;;;;;;3.13;2.17;;;6.00;99.90;;;;;;5007392;28;20034;-74
2022/01/06 14:07:11;;;;;;;6.78;1.92;;;5.60;99.90;;;;;;5016704;28;20466;-74
2022/01/06 14:09:37;;;;;;;4.38;2.30;;;5.20;99.90;;;;;;5011768;28;20113;-74